sensor_id;sensor_type;location;lat;lon;timestamp;temperature;humidity
53045;DHT22;38930;52.766;6.884;2023-07-09T00:00:47;22.80;99.90
53045;DHT22;38930;52.766;6.884;2023-07-09T00:03:14;22.70;99.90
53045;DHT22;38930;52.766;6.884;2023-07-09T00:05:39;22.70;99.90
53045;DHT22;38930;52.766;6.884;2023-07-09T00:08:05;22.60;99.90
53045;DHT22;38930;52.766;6.884;2023-07-09T00:10:30;22.60;99.90
53045;DHT22;38930;52.766;6.884;2023-07-09T00:12:56;22.60;99.90
53045;DHT22;38930;52.766;6.884;2023-07-09T00:15:21;22.50;99.90
53045;DHT22;38930;52.766;6.884;2023-07-09T00:17:47;22.50;99.90
53045;DHT22;38930;52.766;6.884;2023-07-09T00:20:14;22.50;99.90
53045;DHT22;38930;52.766;6.884;2023-07-09T00:22:40;22.40;99.90
53045;DHT22;38930;52.766;6.884;2023-07-09T00:25:09;22.40;99.90
53045;DHT22;38930;52.766;6.884;2023-07-09T00:27:39;22.40;99.90
53045;DHT22;38930;52.766;6.884;2023-07-09T00:30:09;22.40;99.90
53045;DHT22;38930;52.766;6.884;2023-07-09T00:32:40;22.40;99.90
53045;DHT22;38930;52.766;6.884;2023-07-09T00:35:09;22.40;99.90
53045;DHT22;38930;52.766;6.884;2023-07-09T00:37:35;22.30;99.90
53045;DHT22;38930;52.766;6.884;2023-07-09T00:40:00;22.30;99.90
53045;DHT22;38930;52.766;6.884;2023-07-09T00:42:26;22.30;99.90
53045;DHT22;38930;52.766;6.884;2023-07-09T00:44:52;22.20;99.90
53045;DHT22;38930;52.766;6.884;2023-07-09T00:47:21;22.20;99.90
53045;DHT22;38930;52.766;6.884;2023-07-09T00:49:46;22.20;99.90
53045;DHT22;38930;52.766;6.884;2023-07-09T00:52:19;22.10;99.90
53045;DHT22;38930;52.766;6.884;2023-07-09T00:54:47;22.10;99.90
53045;DHT22;38930;52.766;6.884;2023-07-09T00:57:14;22.10;99.90
53045;DHT22;38930;52.766;6.884;2023-07-09T00:59:45;22.00;99.90
53045;DHT22;38930;52.766;6.884;2023-07-09T01:02:13;21.90;99.90
53045;DHT22;38930;52.766;6.884;2023-07-09T01:04:39;21.90;99.90
53045;DHT22;38930;52.766;6.884;2023-07-09T01:07:05;21.90;99.90
53045;DHT22;38930;52.766;6.884;2023-07-09T01:09:31;21.80;99.90
53045;DHT22;38930;52.766;6.884;2023-07-09T01:12:02;21.80;99.90
53045;DHT22;38930;52.766;6.884;2023-07-09T01:14:29;21.70;99.90
53045;DHT22;38930;52.766;6.884;2023-07-09T01:17:00;21.70;99.90
53045;DHT22;38930;52.766;6.884;2023-07-09T01:19:28;21.70;99.90
53045;DHT22;38930;52.766;6.884;2023-07-09T01:21:55;21.60;99.90
53045;DHT22;38930;52.766;6.884;2023-07-09T01:27:05;21.50;99.90
53045;DHT22;38930;52.766;6.884;2023-07-09T01:29:32;21.50;99.90
53045;DHT22;38930;52.766;6.884;2023-07-09T01:31:59;21.50;99.90
53045;DHT22;38930;52.766;6.884;2023-07-09T01:34:25;21.40;99.90
53045;DHT22;38930;52.766;6.884;2023-07-09T01:36:50;21.40;99.90
53045;DHT22;38930;52.766;6.884;2023-07-09T01:39:17;21.30;99.90
53045;DHT22;38930;52.766;6.884;2023-07-09T01:41:44;21.30;99.90
53045;DHT22;38930;52.766;6.884;2023-07-09T01:44:10;21.30;99.90
53045;DHT22;38930;52.766;6.884;2023-07-09T01:46:37;21.20;99.90
53045;DHT22;38930;52.766;6.884;2023-07-09T01:49:02;21.20;99.90
53045;DHT22;38930;52.766;6.884;2023-07-09T01:51:27;21.20;99.90
53045;DHT22;38930;52.766;6.884;2023-07-09T01:53:54;21.10;99.90
53045;DHT22;38930;52.766;6.884;2023-07-09T01:56:19;21.10;99.90
53045;DHT22;38930;52.766;6.884;2023-07-09T01:58:45;21.10;99.90
53045;DHT22;38930;52.766;6.884;2023-07-09T02:01:10;21.10;99.90
53045;DHT22;38930;52.766;6.884;2023-07-09T02:03:36;21.00;99.90
53045;DHT22;38930;52.766;6.884;2023-07-09T02:06:01;20.90;99.90
53045;DHT22;38930;52.766;6.884;2023-07-09T02:08:34;21.00;99.90
53045;DHT22;38930;52.766;6.884;2023-07-09T02:11:01;20.90;99.90
53045;DHT22;38930;52.766;6.884;2023-07-09T02:13:26;20.80;99.90
53045;DHT22;38930;52.766;6.884;2023-07-09T02:15:52;20.80;99.90
53045;DHT22;38930;52.766;6.884;2023-07-09T02:18:17;20.80;99.90
53045;DHT22;38930;52.766;6.884;2023-07-09T02:20:45;20.80;99.90
53045;DHT22;38930;52.766;6.884;2023-07-09T02:23:10;20.80;99.90
53045;DHT22;38930;52.766;6.884;2023-07-09T02:25:36;20.70;99.90
53045;DHT22;38930;52.766;6.884;2023-07-09T02:28:02;20.70;99.90
53045;DHT22;38930;52.766;6.884;2023-07-09T02:30:28;20.70;99.90
53045;DHT22;38930;52.766;6.884;2023-07-09T02:32:54;20.60;99.90
53045;DHT22;38930;52.766;6.884;2023-07-09T02:35:22;20.60;99.90
53045;DHT22;38930;52.766;6.884;2023-07-09T02:37:48;20.60;99.90
53045;DHT22;38930;52.766;6.884;2023-07-09T02:40:14;20.60;99.90
53045;DHT22;38930;52.766;6.884;2023-07-09T02:42:40;20.50;99.90
53045;DHT22;38930;52.766;6.884;2023-07-09T02:45:06;20.50;99.90
53045;DHT22;38930;52.766;6.884;2023-07-09T02:47:32;20.50;99.90
53045;DHT22;38930;52.766;6.884;2023-07-09T02:49:57;20.40;99.90
53045;DHT22;38930;52.766;6.884;2023-07-09T02:52:23;20.40;99.90
53045;DHT22;38930;52.766;6.884;2023-07-09T02:54:48;20.40;99.90
53045;DHT22;38930;52.766;6.884;2023-07-09T02:57:14;20.30;99.90
53045;DHT22;38930;52.766;6.884;2023-07-09T02:59:39;20.30;99.90
53045;DHT22;38930;52.766;6.884;2023-07-09T03:02:05;20.30;99.90
53045;DHT22;38930;52.766;6.884;2023-07-09T03:04:30;20.30;99.90
53045;DHT22;38930;52.766;6.884;2023-07-09T03:06:59;20.20;99.90
53045;DHT22;38930;52.766;6.884;2023-07-09T03:09:25;20.20;99.90
53045;DHT22;38930;52.766;6.884;2023-07-09T03:11:50;20.10;99.90
53045;DHT22;38930;52.766;6.884;2023-07-09T03:14:16;20.10;99.90
53045;DHT22;38930;52.766;6.884;2023-07-09T03:16:42;20.10;99.90
53045;DHT22;38930;52.766;6.884;2023-07-09T03:19:07;20.00;99.90
53045;DHT22;38930;52.766;6.884;2023-07-09T03:21:33;20.00;99.90
53045;DHT22;38930;52.766;6.884;2023-07-09T03:23:58;20.00;99.90
53045;DHT22;38930;52.766;6.884;2023-07-09T03:26:24;20.00;99.90
53045;DHT22;38930;52.766;6.884;2023-07-09T03:28:51;20.00;99.90
53045;DHT22;38930;52.766;6.884;2023-07-09T03:31:16;20.00;99.90
53045;DHT22;38930;52.766;6.884;2023-07-09T03:33:42;19.90;99.90
53045;DHT22;38930;52.766;6.884;2023-07-09T03:36:07;20.00;99.90
53045;DHT22;38930;52.766;6.884;2023-07-09T03:38:33;19.90;99.90
53045;DHT22;38930;52.766;6.884;2023-07-09T03:40:58;19.90;99.90
53045;DHT22;38930;52.766;6.884;2023-07-09T03:43:24;19.90;99.90
53045;DHT22;38930;52.766;6.884;2023-07-09T03:45:50;19.90;99.90
53045;DHT22;38930;52.766;6.884;2023-07-09T03:48:16;19.90;99.90
53045;DHT22;38930;52.766;6.884;2023-07-09T03:50:43;20.00;99.90
53045;DHT22;38930;52.766;6.884;2023-07-09T03:53:09;20.00;99.90
53045;DHT22;38930;52.766;6.884;2023-07-09T03:55:34;20.00;99.90
53045;DHT22;38930;52.766;6.884;2023-07-09T03:58:00;20.00;99.90
53045;DHT22;38930;52.766;6.884;2023-07-09T04:00:28;20.10;99.90
53045;DHT22;38930;52.766;6.884;2023-07-09T04:02:53;20.10;99.90
53045;DHT22;38930;52.766;6.884;2023-07-09T04:05:20;20.10;99.90
53045;DHT22;38930;52.766;6.884;2023-07-09T04:07:45;20.20;99.90
53045;DHT22;38930;52.766;6.884;2023-07-09T04:10:13;20.20;99.90
53045;DHT22;38930;52.766;6.884;2023-07-09T04:12:39;20.30;99.90
53045;DHT22;38930;52.766;6.884;2023-07-09T04:15:04;20.30;99.90
53045;DHT22;38930;52.766;6.884;2023-07-09T04:17:31;20.40;99.90
53045;DHT22;38930;52.766;6.884;2023-07-09T04:19:57;20.50;99.90
53045;DHT22;38930;52.766;6.884;2023-07-09T04:22:22;20.50;99.90
53045;DHT22;38930;52.766;6.884;2023-07-09T04:24:48;20.50;99.90
53045;DHT22;38930;52.766;6.884;2023-07-09T04:27:15;20.60;99.90
53045;DHT22;38930;52.766;6.884;2023-07-09T04:29:40;20.60;99.90
53045;DHT22;38930;52.766;6.884;2023-07-09T04:32:06;20.70;99.90
53045;DHT22;38930;52.766;6.884;2023-07-09T04:34:32;20.70;99.90
53045;DHT22;38930;52.766;6.884;2023-07-09T04:36:58;20.80;99.90
53045;DHT22;38930;52.766;6.884;2023-07-09T04:39:23;20.90;99.90
53045;DHT22;38930;52.766;6.884;2023-07-09T04:41:49;20.90;99.90
53045;DHT22;38930;52.766;6.884;2023-07-09T04:44:15;21.00;99.90
53045;DHT22;38930;52.766;6.884;2023-07-09T04:46:40;21.00;99.90
53045;DHT22;38930;52.766;6.884;2023-07-09T04:49:06;21.10;99.90
53045;DHT22;38930;52.766;6.884;2023-07-09T04:51:31;21.10;99.90
53045;DHT22;38930;52.766;6.884;2023-07-09T04:53:57;21.20;99.90
53045;DHT22;38930;52.766;6.884;2023-07-09T04:56:23;21.30;99.90
53045;DHT22;38930;52.766;6.884;2023-07-09T04:58:48;21.30;99.90
53045;DHT22;38930;52.766;6.884;2023-07-09T05:01:14;21.40;99.90
53045;DHT22;38930;52.766;6.884;2023-07-09T05:03:39;21.50;99.90
53045;DHT22;38930;52.766;6.884;2023-07-09T05:06:05;21.50;99.90
53045;DHT22;38930;52.766;6.884;2023-07-09T05:08:30;21.50;99.90
53045;DHT22;38930;52.766;6.884;2023-07-09T05:10:56;21.60;99.90
53045;DHT22;38930;52.766;6.884;2023-07-09T05:13:22;21.70;99.90
53045;DHT22;38930;52.766;6.884;2023-07-09T05:15:48;21.70;99.90
53045;DHT22;38930;52.766;6.884;2023-07-09T05:18:14;21.80;99.90
53045;DHT22;38930;52.766;6.884;2023-07-09T05:20:40;21.90;99.90
53045;DHT22;38930;52.766;6.884;2023-07-09T05:23:06;22.00;99.90
53045;DHT22;38930;52.766;6.884;2023-07-09T05:25:31;22.20;99.90
53045;DHT22;38930;52.766;6.884;2023-07-09T05:27:57;22.30;99.90
53045;DHT22;38930;52.766;6.884;2023-07-09T05:30:22;22.50;99.90
53045;DHT22;38930;52.766;6.884;2023-07-09T05:32:48;22.70;99.90
53045;DHT22;38930;52.766;6.884;2023-07-09T05:35:13;23.00;99.90
53045;DHT22;38930;52.766;6.884;2023-07-09T05:37:39;23.30;99.90
53045;DHT22;38930;52.766;6.884;2023-07-09T05:40:05;23.50;99.90
53045;DHT22;38930;52.766;6.884;2023-07-09T05:42:31;23.60;99.90
53045;DHT22;38930;52.766;6.884;2023-07-09T05:44:57;23.70;99.90
53045;DHT22;38930;52.766;6.884;2023-07-09T05:47:22;23.80;99.90
53045;DHT22;38930;52.766;6.884;2023-07-09T05:49:48;24.00;99.90
53045;DHT22;38930;52.766;6.884;2023-07-09T05:52:21;24.10;99.90
53045;DHT22;38930;52.766;6.884;2023-07-09T05:54:50;24.10;99.90
53045;DHT22;38930;52.766;6.884;2023-07-09T05:57:16;24.20;99.90
53045;DHT22;38930;52.766;6.884;2023-07-09T05:59:41;24.10;99.90
53045;DHT22;38930;52.766;6.884;2023-07-09T06:02:10;24.20;99.90
53045;DHT22;38930;52.766;6.884;2023-07-09T06:04:36;24.30;99.90
53045;DHT22;38930;52.766;6.884;2023-07-09T06:07:01;24.40;99.90
53045;DHT22;38930;52.766;6.884;2023-07-09T06:09:29;24.50;99.90
53045;DHT22;38930;52.766;6.884;2023-07-09T06:11:54;24.60;99.90
53045;DHT22;38930;52.766;6.884;2023-07-09T06:14:20;24.70;99.90
53045;DHT22;38930;52.766;6.884;2023-07-09T06:16:45;24.80;99.90
53045;DHT22;38930;52.766;6.884;2023-07-09T06:19:11;24.80;99.90
53045;DHT22;38930;52.766;6.884;2023-07-09T06:21:36;24.80;99.90
53045;DHT22;38930;52.766;6.884;2023-07-09T06:24:02;24.90;99.90
53045;DHT22;38930;52.766;6.884;2023-07-09T06:26:28;25.00;99.90
53045;DHT22;38930;52.766;6.884;2023-07-09T06:28:53;25.00;99.90
53045;DHT22;38930;52.766;6.884;2023-07-09T06:31:19;25.10;99.90
53045;DHT22;38930;52.766;6.884;2023-07-09T06:33:47;25.20;99.90
53045;DHT22;38930;52.766;6.884;2023-07-09T06:36:12;25.20;99.90
53045;DHT22;38930;52.766;6.884;2023-07-09T06:38:38;25.20;99.90
53045;DHT22;38930;52.766;6.884;2023-07-09T06:41:03;25.20;99.90
53045;DHT22;38930;52.766;6.884;2023-07-09T06:43:30;25.30;99.90
53045;DHT22;38930;52.766;6.884;2023-07-09T06:45:57;25.30;99.90
53045;DHT22;38930;52.766;6.884;2023-07-09T06:48:24;25.50;99.90
53045;DHT22;38930;52.766;6.884;2023-07-09T06:50:51;25.60;99.90
53045;DHT22;38930;52.766;6.884;2023-07-09T06:53:16;25.70;99.90
53045;DHT22;38930;52.766;6.884;2023-07-09T06:55:42;25.80;99.90
53045;DHT22;38930;52.766;6.884;2023-07-09T06:58:08;25.80;99.90
53045;DHT22;38930;52.766;6.884;2023-07-09T07:00:34;26.00;99.90
53045;DHT22;38930;52.766;6.884;2023-07-09T07:03:00;26.00;99.90
53045;DHT22;38930;52.766;6.884;2023-07-09T07:05:26;26.10;99.90
53045;DHT22;38930;52.766;6.884;2023-07-09T07:07:52;26.30;99.90
53045;DHT22;38930;52.766;6.884;2023-07-09T07:10:18;26.20;99.90
53045;DHT22;38930;52.766;6.884;2023-07-09T07:12:45;26.30;99.90
53045;DHT22;38930;52.766;6.884;2023-07-09T07:15:12;26.50;99.90
53045;DHT22;38930;52.766;6.884;2023-07-09T07:18:16;26.60;99.90
53045;DHT22;38930;52.766;6.884;2023-07-09T07:20:42;26.70;99.90
53045;DHT22;38930;52.766;6.884;2023-07-09T07:23:08;26.70;99.90
53045;DHT22;38930;52.766;6.884;2023-07-09T07:25:34;26.90;99.90
53045;DHT22;38930;52.766;6.884;2023-07-09T07:27:59;27.00;99.90
53045;DHT22;38930;52.766;6.884;2023-07-09T07:30:25;27.10;99.90
53045;DHT22;38930;52.766;6.884;2023-07-09T07:32:50;27.20;99.90
53045;DHT22;38930;52.766;6.884;2023-07-09T07:35:16;27.30;99.90
53045;DHT22;38930;52.766;6.884;2023-07-09T07:37:43;27.40;99.90
53045;DHT22;38930;52.766;6.884;2023-07-09T07:40:09;27.50;99.90
53045;DHT22;38930;52.766;6.884;2023-07-09T07:42:36;27.50;99.90
53045;DHT22;38930;52.766;6.884;2023-07-09T07:45:02;27.60;99.90
53045;DHT22;38930;52.766;6.884;2023-07-09T07:47:29;27.60;99.90
53045;DHT22;38930;52.766;6.884;2023-07-09T07:49:55;27.70;99.90
53045;DHT22;38930;52.766;6.884;2023-07-09T07:52:20;27.80;99.90
53045;DHT22;38930;52.766;6.884;2023-07-09T07:54:46;28.00;99.90
53045;DHT22;38930;52.766;6.884;2023-07-09T07:57:12;28.20;99.90
53045;DHT22;38930;52.766;6.884;2023-07-09T07:59:40;28.30;99.90
53045;DHT22;38930;52.766;6.884;2023-07-09T08:02:08;28.40;99.90
53045;DHT22;38930;52.766;6.884;2023-07-09T08:04:35;28.50;99.90
53045;DHT22;38930;52.766;6.884;2023-07-09T08:07:01;28.60;99.90
53045;DHT22;38930;52.766;6.884;2023-07-09T08:09:27;28.60;99.90
53045;DHT22;38930;52.766;6.884;2023-07-09T08:11:53;28.60;99.90
53045;DHT22;38930;52.766;6.884;2023-07-09T08:14:19;28.70;99.90
53045;DHT22;38930;52.766;6.884;2023-07-09T08:16:44;28.90;99.90
53045;DHT22;38930;52.766;6.884;2023-07-09T08:19:10;29.00;99.90
53045;DHT22;38930;52.766;6.884;2023-07-09T08:21:35;29.10;99.90
53045;DHT22;38930;52.766;6.884;2023-07-09T08:24:01;29.20;99.90
53045;DHT22;38930;52.766;6.884;2023-07-09T08:26:27;29.30;99.90
53045;DHT22;38930;52.766;6.884;2023-07-09T08:28:53;29.50;99.90
53045;DHT22;38930;52.766;6.884;2023-07-09T08:31:22;29.50;99.90
53045;DHT22;38930;52.766;6.884;2023-07-09T08:33:48;29.60;99.90
53045;DHT22;38930;52.766;6.884;2023-07-09T08:36:13;29.60;99.90
53045;DHT22;38930;52.766;6.884;2023-07-09T08:38:39;29.70;99.90
53045;DHT22;38930;52.766;6.884;2023-07-09T08:46:32;29.90;99.90
53045;DHT22;38930;52.766;6.884;2023-07-09T08:48:58;30.00;99.90
53045;DHT22;38930;52.766;6.884;2023-07-09T08:51:41;30.00;99.90
53045;DHT22;38930;52.766;6.884;2023-07-09T08:54:31;30.00;99.90
53045;DHT22;38930;52.766;6.884;2023-07-09T08:57:10;30.00;99.90
53045;DHT22;38930;52.766;6.884;2023-07-09T08:59:39;30.10;99.90
53045;DHT22;38930;52.766;6.884;2023-07-09T09:02:25;30.20;99.90
53045;DHT22;38930;52.766;6.884;2023-07-09T09:04:53;30.30;99.90
53045;DHT22;38930;52.766;6.884;2023-07-09T09:07:37;30.60;99.90
53045;DHT22;38930;52.766;6.884;2023-07-09T09:10:04;30.80;99.90
53045;DHT22;38930;52.766;6.884;2023-07-09T09:12:37;30.90;99.90
53045;DHT22;38930;52.766;6.884;2023-07-09T09:15:11;30.90;99.90
53045;DHT22;38930;52.766;6.884;2023-07-09T09:17:38;31.10;99.90
53045;DHT22;38930;52.766;6.884;2023-07-09T09:20:09;31.20;99.90
53045;DHT22;38930;52.766;6.884;2023-07-09T09:22:59;31.30;99.90
53045;DHT22;38930;52.766;6.884;2023-07-09T09:25:31;31.40;99.90
53045;DHT22;38930;52.766;6.884;2023-07-09T09:28:01;31.50;99.90
53045;DHT22;38930;52.766;6.884;2023-07-09T09:30:29;31.50;99.90
53045;DHT22;38930;52.766;6.884;2023-07-09T09:33:02;31.60;99.90
53045;DHT22;38930;52.766;6.884;2023-07-09T09:35:36;31.70;99.90
53045;DHT22;38930;52.766;6.884;2023-07-09T09:38:09;31.70;99.90
53045;DHT22;38930;52.766;6.884;2023-07-09T09:40:35;31.80;99.50
53045;DHT22;38930;52.766;6.884;2023-07-09T09:43:02;31.70;99.30
53045;DHT22;38930;52.766;6.884;2023-07-09T09:45:37;31.80;98.70
53045;DHT22;38930;52.766;6.884;2023-07-09T09:48:30;31.80;99.30
53045;DHT22;38930;52.766;6.884;2023-07-09T09:50:56;31.90;98.40
53045;DHT22;38930;52.766;6.884;2023-07-09T09:53:28;32.00;98.60
53045;DHT22;38930;52.766;6.884;2023-07-09T09:55:55;32.10;98.90
53045;DHT22;38930;52.766;6.884;2023-07-09T09:58:28;32.20;99.20
53045;DHT22;38930;52.766;6.884;2023-07-09T10:00:56;32.30;98.50
53045;DHT22;38930;52.766;6.884;2023-07-09T10:03:35;32.40;98.10
53045;DHT22;38930;52.766;6.884;2023-07-09T10:06:21;32.50;99.20
53045;DHT22;38930;52.766;6.884;2023-07-09T10:08:54;32.60;99.20
53045;DHT22;38930;52.766;6.884;2023-07-09T10:11:34;32.70;99.20
53045;DHT22;38930;52.766;6.884;2023-07-09T10:14:24;32.80;98.40
53045;DHT22;38930;52.766;6.884;2023-07-09T10:19:53;33.00;97.80
53045;DHT22;38930;52.766;6.884;2023-07-09T10:22:40;33.10;97.10
53045;DHT22;38930;52.766;6.884;2023-07-09T10:25:33;33.20;97.60
53045;DHT22;38930;52.766;6.884;2023-07-09T10:28:26;33.30;96.80
53045;DHT22;38930;52.766;6.884;2023-07-09T10:36:18;33.30;97.60
53045;DHT22;38930;52.766;6.884;2023-07-09T10:39:03;33.30;96.30
53045;DHT22;38930;52.766;6.884;2023-07-09T10:41:35;33.30;97.10
53045;DHT22;38930;52.766;6.884;2023-07-09T10:44:16;33.30;97.00
53045;DHT22;38930;52.766;6.884;2023-07-09T10:46:49;33.40;96.30
53045;DHT22;38930;52.766;6.884;2023-07-09T10:49:17;33.40;96.50
53045;DHT22;38930;52.766;6.884;2023-07-09T10:51:53;33.40;95.80
53045;DHT22;38930;52.766;6.884;2023-07-09T10:56:53;33.50;97.10
53045;DHT22;38930;52.766;6.884;2023-07-09T10:59:31;33.60;95.70
53045;DHT22;38930;52.766;6.884;2023-07-09T11:02:08;33.60;95.10
53045;DHT22;38930;52.766;6.884;2023-07-09T11:04:53;33.60;95.80
53045;DHT22;38930;52.766;6.884;2023-07-09T11:07:30;33.80;96.30
53045;DHT22;38930;52.766;6.884;2023-07-09T11:09:58;33.90;96.50
53045;DHT22;38930;52.766;6.884;2023-07-09T11:12:33;34.00;95.50
53045;DHT22;38930;52.766;6.884;2023-07-09T11:15:11;34.10;95.50
53045;DHT22;38930;52.766;6.884;2023-07-09T11:17:43;34.10;95.00
53045;DHT22;38930;52.766;6.884;2023-07-09T11:20:22;34.20;94.80
53045;DHT22;38930;52.766;6.884;2023-07-09T11:22:54;34.20;94.90
53045;DHT22;38930;52.766;6.884;2023-07-09T11:25:48;34.10;95.50
53045;DHT22;38930;52.766;6.884;2023-07-09T11:28:13;34.10;95.50
53045;DHT22;38930;52.766;6.884;2023-07-09T11:31:14;34.20;95.10
53045;DHT22;38930;52.766;6.884;2023-07-09T11:33:47;34.30;95.40
53045;DHT22;38930;52.766;6.884;2023-07-09T11:36:23;34.30;95.30
53045;DHT22;38930;52.766;6.884;2023-07-09T11:38:52;34.40;95.60
53045;DHT22;38930;52.766;6.884;2023-07-09T11:49:45;34.50;93.50
53045;DHT22;38930;52.766;6.884;2023-07-09T11:52:12;34.50;94.00
53045;DHT22;38930;52.766;6.884;2023-07-09T11:54:38;34.50;94.20
53045;DHT22;38930;52.766;6.884;2023-07-09T11:57:11;34.50;94.50
53045;DHT22;38930;52.766;6.884;2023-07-09T11:59:42;34.60;94.10
53045;DHT22;38930;52.766;6.884;2023-07-09T12:02:20;34.70;94.30
53045;DHT22;38930;52.766;6.884;2023-07-09T12:04:51;34.70;93.60
53045;DHT22;38930;52.766;6.884;2023-07-09T12:07:20;34.80;94.10
53045;DHT22;38930;52.766;6.884;2023-07-09T12:09:49;34.80;93.60
53045;DHT22;38930;52.766;6.884;2023-07-09T12:12:24;34.80;94.30
53045;DHT22;38930;52.766;6.884;2023-07-09T12:14:50;34.80;93.90
53045;DHT22;38930;52.766;6.884;2023-07-09T12:17:17;34.90;94.20
53045;DHT22;38930;52.766;6.884;2023-07-09T12:19:43;34.90;94.20
53045;DHT22;38930;52.766;6.884;2023-07-09T12:22:15;35.00;93.70
53045;DHT22;38930;52.766;6.884;2023-07-09T12:24:43;35.00;93.70
53045;DHT22;38930;52.766;6.884;2023-07-09T12:27:26;35.20;93.80
53045;DHT22;38930;52.766;6.884;2023-07-09T12:29:56;35.30;92.90
53045;DHT22;38930;52.766;6.884;2023-07-09T12:32:22;35.30;92.70
53045;DHT22;38930;52.766;6.884;2023-07-09T12:34:53;35.30;93.10
53045;DHT22;38930;52.766;6.884;2023-07-09T12:37:24;35.30;93.00
53045;DHT22;38930;52.766;6.884;2023-07-09T12:39:51;35.30;92.90
53045;DHT22;38930;52.766;6.884;2023-07-09T12:42:21;35.20;93.30
53045;DHT22;38930;52.766;6.884;2023-07-09T12:44:49;35.20;92.40
53045;DHT22;38930;52.766;6.884;2023-07-09T12:47:15;35.10;93.40
53045;DHT22;38930;52.766;6.884;2023-07-09T12:49:44;35.20;93.90
53045;DHT22;38930;52.766;6.884;2023-07-09T12:52:19;35.30;93.10
53045;DHT22;38930;52.766;6.884;2023-07-09T12:54:59;35.40;93.20
53045;DHT22;38930;52.766;6.884;2023-07-09T12:57:26;35.40;92.50
53045;DHT22;38930;52.766;6.884;2023-07-09T12:59:54;35.40;91.70
53045;DHT22;38930;52.766;6.884;2023-07-09T13:02:25;35.40;91.40
53045;DHT22;38930;52.766;6.884;2023-07-09T13:05:00;35.30;92.00
53045;DHT22;38930;52.766;6.884;2023-07-09T13:07:31;35.30;91.90
53045;DHT22;38930;52.766;6.884;2023-07-09T13:10:15;35.10;91.70
53045;DHT22;38930;52.766;6.884;2023-07-09T13:12:44;34.90;91.40
53045;DHT22;38930;52.766;6.884;2023-07-09T13:15:38;34.80;90.90
53045;DHT22;38930;52.766;6.884;2023-07-09T13:18:06;34.60;91.70
53045;DHT22;38930;52.766;6.884;2023-07-09T13:20:34;34.40;92.10
53045;DHT22;38930;52.766;6.884;2023-07-09T13:23:14;34.40;92.70
53045;DHT22;38930;52.766;6.884;2023-07-09T13:25:41;34.40;92.50
53045;DHT22;38930;52.766;6.884;2023-07-09T13:28:30;34.30;92.50
53045;DHT22;38930;52.766;6.884;2023-07-09T13:30:58;34.30;92.70
53045;DHT22;38930;52.766;6.884;2023-07-09T13:33:25;34.10;92.00
53045;DHT22;38930;52.766;6.884;2023-07-09T13:35:50;34.00;92.50
53045;DHT22;38930;52.766;6.884;2023-07-09T13:38:23;33.90;92.40
53045;DHT22;38930;52.766;6.884;2023-07-09T13:40:51;33.80;93.30
53045;DHT22;38930;52.766;6.884;2023-07-09T13:43:28;33.70;93.60
53045;DHT22;38930;52.766;6.884;2023-07-09T13:45:54;33.60;92.80
53045;DHT22;38930;52.766;6.884;2023-07-09T13:48:22;33.40;93.60
53045;DHT22;38930;52.766;6.884;2023-07-09T13:50:51;33.30;93.70
53045;DHT22;38930;52.766;6.884;2023-07-09T13:53:23;33.10;93.60
53045;DHT22;38930;52.766;6.884;2023-07-09T13:55:50;33.00;94.50
53045;DHT22;38930;52.766;6.884;2023-07-09T13:58:18;32.90;94.30
53045;DHT22;38930;52.766;6.884;2023-07-09T14:00:46;32.80;94.00
53045;DHT22;38930;52.766;6.884;2023-07-09T14:03:22;32.80;94.80
53045;DHT22;38930;52.766;6.884;2023-07-09T14:05:49;32.80;94.70
53045;DHT22;38930;52.766;6.884;2023-07-09T14:08:15;32.90;94.40
53045;DHT22;38930;52.766;6.884;2023-07-09T14:10:42;33.00;94.50
53045;DHT22;38930;52.766;6.884;2023-07-09T14:13:18;33.10;93.30
53045;DHT22;38930;52.766;6.884;2023-07-09T14:15:44;33.10;93.30
53045;DHT22;38930;52.766;6.884;2023-07-09T14:18:21;33.00;94.10
53045;DHT22;38930;52.766;6.884;2023-07-09T14:20:47;33.00;95.70
53045;DHT22;38930;52.766;6.884;2023-07-09T14:23:15;33.10;95.00
53045;DHT22;38930;52.766;6.884;2023-07-09T14:25:45;32.90;95.30
53045;DHT22;38930;52.766;6.884;2023-07-09T14:28:13;32.90;95.20
53045;DHT22;38930;52.766;6.884;2023-07-09T14:30:39;32.80;95.00
53045;DHT22;38930;52.766;6.884;2023-07-09T14:33:11;32.70;94.60
53045;DHT22;38930;52.766;6.884;2023-07-09T14:35:38;32.60;95.20
53045;DHT22;38930;52.766;6.884;2023-07-09T14:38:06;32.40;94.30
53045;DHT22;38930;52.766;6.884;2023-07-09T14:40:34;32.30;94.20
53045;DHT22;38930;52.766;6.884;2023-07-09T14:43:00;32.20;94.80
53045;DHT22;38930;52.766;6.884;2023-07-09T14:45:28;32.10;95.20
53045;DHT22;38930;52.766;6.884;2023-07-09T14:47:54;32.00;95.30
53045;DHT22;38930;52.766;6.884;2023-07-09T14:50:22;31.90;95.20
53045;DHT22;38930;52.766;6.884;2023-07-09T14:52:48;31.80;95.40
53045;DHT22;38930;52.766;6.884;2023-07-09T14:57:41;31.60;95.90
53045;DHT22;38930;52.766;6.884;2023-07-09T15:00:15;31.50;95.90
53045;DHT22;38930;52.766;6.884;2023-07-09T15:02:42;31.40;96.30
53045;DHT22;38930;52.766;6.884;2023-07-09T15:05:23;31.40;96.40
53045;DHT22;38930;52.766;6.884;2023-07-09T15:07:50;31.30;96.80
53045;DHT22;38930;52.766;6.884;2023-07-09T15:10:28;31.20;97.10
53045;DHT22;38930;52.766;6.884;2023-07-09T15:12:54;31.10;97.20
53045;DHT22;38930;52.766;6.884;2023-07-09T15:15:29;31.10;97.20
53045;DHT22;38930;52.766;6.884;2023-07-09T15:17:56;31.00;97.60
53045;DHT22;38930;52.766;6.884;2023-07-09T15:20:25;31.00;97.90
53045;DHT22;38930;52.766;6.884;2023-07-09T15:22:53;31.00;98.10
53045;DHT22;38930;52.766;6.884;2023-07-09T15:25:22;30.90;98.50
53045;DHT22;38930;52.766;6.884;2023-07-09T15:27:49;30.80;98.30
53045;DHT22;38930;52.766;6.884;2023-07-09T15:30:20;30.80;98.50
53045;DHT22;38930;52.766;6.884;2023-07-09T15:32:48;30.80;98.90
53045;DHT22;38930;52.766;6.884;2023-07-09T15:35:18;30.80;99.30
53045;DHT22;38930;52.766;6.884;2023-07-09T15:37:44;30.70;99.90
53045;DHT22;38930;52.766;6.884;2023-07-09T15:40:22;30.50;99.90
53045;DHT22;38930;52.766;6.884;2023-07-09T15:42:51;30.30;99.90
53045;DHT22;38930;52.766;6.884;2023-07-09T15:45:19;30.00;99.90
53045;DHT22;38930;52.766;6.884;2023-07-09T15:47:46;29.60;99.90
53045;DHT22;38930;52.766;6.884;2023-07-09T15:50:25;29.40;99.90
53045;DHT22;38930;52.766;6.884;2023-07-09T15:52:51;29.10;99.90
53045;DHT22;38930;52.766;6.884;2023-07-09T15:55:25;28.80;99.90
53045;DHT22;38930;52.766;6.884;2023-07-09T15:57:54;28.50;99.90
53045;DHT22;38930;52.766;6.884;2023-07-09T16:00:28;28.20;99.90
53045;DHT22;38930;52.766;6.884;2023-07-09T16:02:55;28.00;99.90
53045;DHT22;38930;52.766;6.884;2023-07-09T16:05:28;27.90;99.90
53045;DHT22;38930;52.766;6.884;2023-07-09T16:07:58;27.60;99.90
53045;DHT22;38930;52.766;6.884;2023-07-09T16:10:27;27.50;99.90